Time;durP1;ratioP1;P1;durP2;ratioP2;P2;SDS_P1;SDS_P2;PMS_P1;PMS_P2;Temp;Humidity;BMP_temperature;BMP_pressure;BME280_temperature;BME280_humidity;BME280_pressure;Samples;Min_cycle;Max_cycle;Signal;HPM_P1;HPM_P2
2021/09/14 00:00:22;;;;;;;1.88;1.67;;;22.30;60.60;;;;;;4952588;29;20023;-73
2021/09/14 00:02:49;;;;;;;2.72;1.75;;;22.20;60.30;;;;;;4953148;29;20061;-76
2021/09/14 00:05:15;;;;;;;3.00;2.03;;;22.10;61.60;;;;;;4953455;29;20023;-75
2021/09/14 00:07:40;;;;;;;3.22;2.10;;;22.10;62.40;;;;;;4954041;29;20027;-75
2021/09/14 00:10:08;;;;;;;2.65;1.98;;;22.00;61.50;;;;;;4953266;29;20047;-76
2021/09/14 00:12:33;;;;;;;3.15;2.03;;;22.00;61.80;;;;;;4952551;29;20027;-76
2021/09/14 00:14:59;;;;;;;2.70;1.90;;;21.90;61.80;;;;;;4952712;29;20451;-75
2021/09/14 00:17:25;;;;;;;3.15;1.98;;;22.00;61.70;;;;;;4952301;29;20042;-76
2021/09/14 00:19:50;;;;;;;2.85;2.22;;;22.00;61.50;;;;;;4953120;29;20411;-75
2021/09/14 00:22:16;;;;;;;3.88;2.10;;;22.00;61.40;;;;;;4936052;29;20143;-74
2021/09/14 00:24:42;;;;;;;3.08;2.10;;;22.00;61.50;;;;;;4953178;29;20028;-73
2021/09/14 00:27:07;;;;;;;2.13;1.80;;;22.00;61.70;;;;;;4953325;29;20086;-76
2021/09/14 00:29:33;;;;;;;3.17;1.98;;;21.90;62.20;;;;;;4953182;29;20154;-76
2021/09/14 00:31:58;;;;;;;2.70;1.95;;;22.00;61.90;;;;;;4953257;29;20122;-74
2021/09/14 00:34:24;;;;;;;3.97;1.95;;;22.00;61.80;;;;;;4953235;29;20107;-74
2021/09/14 00:36:50;;;;;;;2.80;1.90;;;21.90;61.70;;;;;;4952940;29;20038;-73
2021/09/14 00:39:15;;;;;;;3.10;1.75;;;22.00;62.10;;;;;;4952316;29;20034;-74
2021/09/14 00:41:41;;;;;;;2.60;2.00;;;22.00;61.90;;;;;;4935003;29;20035;-76
2021/09/14 00:44:06;;;;;;;3.67;2.40;;;21.80;62.40;;;;;;4952604;29;20031;-75
2021/09/14 00:46:32;;;;;;;2.58;1.90;;;21.80;62.40;;;;;;4952352;29;20079;-76
2021/09/14 00:48:58;;;;;;;2.13;1.65;;;21.70;62.10;;;;;;4952188;29;20039;-75
2021/09/14 00:51:24;;;;;;;2.42;1.90;;;21.70;62.70;;;;;;4952662;29;20515;-76
2021/09/14 00:53:50;;;;;;;2.17;1.90;;;21.70;62.80;;;;;;4953081;29;20118;-76
2021/09/14 00:56:17;;;;;;;2.25;1.88;;;21.70;63.20;;;;;;4955883;28;20055;-75
2021/09/14 00:58:43;;;;;;;2.83;2.20;;;21.70;63.00;;;;;;4957245;29;20028;-76
2021/09/14 01:01:09;;;;;;;2.28;1.95;;;21.70;62.80;;;;;;4956055;29;20054;-75
2021/09/14 01:03:35;;;;;;;3.63;1.80;;;21.80;62.60;;;;;;4956361;29;20119;-75
2021/09/14 01:06:02;;;;;;;3.25;1.90;;;21.90;62.60;;;;;;4956296;29;20575;-76
2021/09/14 01:08:30;;;;;;;2.40;2.00;;;21.90;62.60;;;;;;4941328;29;20028;-76
2021/09/14 01:10:56;;;;;;;3.72;2.00;;;21.90;62.60;;;;;;4953125;29;20090;-75
2021/09/14 01:13:21;;;;;;;2.97;2.00;;;21.90;62.70;;;;;;4956353;29;20027;-76
2021/09/14 01:15:47;;;;;;;2.75;2.10;;;21.90;62.20;;;;;;4955994;29;20487;-76
2021/09/14 01:18:13;;;;;;;3.33;2.20;;;21.90;62.40;;;;;;4955984;29;20031;-75
2021/09/14 01:20:38;;;;;;;3.47;2.35;;;21.90;62.60;;;;;;4955370;29;20431;-76
2021/09/14 01:23:04;;;;;;;3.42;2.33;;;21.90;62.90;;;;;;4938434;29;20463;-74
2021/09/14 01:25:30;;;;;;;2.80;2.05;;;21.90;62.40;;;;;;4955607;29;20030;-76
2021/09/14 01:28:02;;;;;;;4.88;2.40;;;22.00;62.80;;;;;;4955344;29;20031;-76
2021/09/14 01:30:27;;;;;;;2.33;2.13;;;22.00;62.30;;;;;;4955430;28;20050;-75
2021/09/14 01:32:55;;;;;;;4.78;2.10;;;21.90;62.70;;;;;;4955884;29;20283;-75
2021/09/14 01:35:29;;;;;;;2.17;1.90;;;22.00;62.70;;;;;;4956079;29;20100;-76
2021/09/14 01:37:55;;;;;;;2.38;1.88;;;22.00;62.90;;;;;;4952537;29;20104;-75
2021/09/14 01:40:21;;;;;;;3.00;2.05;;;22.00;63.10;;;;;;4955820;29;20061;-76
2021/09/14 01:42:47;;;;;;;2.72;2.22;;;21.90;62.60;;;;;;4956065;29;20496;-75
2021/09/14 01:45:14;;;;;;;2.53;2.05;;;22.00;63.20;;;;;;4955588;29;20058;-75
2021/09/14 01:47:41;;;;;;;2.70;2.30;;;22.00;63.00;;;;;;4955919;29;20070;-75
2021/09/14 01:50:09;;;;;;;2.60;1.75;;;22.00;62.60;;;;;;4955810;29;20046;-76
2021/09/14 01:52:34;;;;;;;4.32;1.55;;;22.00;63.20;;;;;;4956021;29;20027;-75
2021/09/14 01:55:01;;;;;;;4.30;1.92;;;22.00;63.30;;;;;;4955652;29;20185;-76
2021/09/14 01:57:32;;;;;;;3.25;2.20;;;22.00;63.30;;;;;;4950540;29;20504;-76
2021/09/14 01:59:59;;;;;;;3.15;2.15;;;22.10;62.70;;;;;;4946501;29;20408;-75
2021/09/14 02:05:02;;;;;;;3.35;2.22;;;22.30;62.80;;;;;;4951457;29;20031;-75
2021/09/14 02:58:42;;;;;;;2.80;2.55;;;22.40;65.50;;;;;;4856395;29;20070;-75
2021/09/14 03:01:09;;;;;;;4.47;2.55;;;22.40;65.80;;;;;;4860956;29;20049;-76
2021/09/14 03:03:37;;;;;;;3.70;2.70;;;22.40;66.00;;;;;;4846015;29;20014;-75
2021/09/14 03:06:03;;;;;;;4.13;3.10;;;22.30;66.40;;;;;;4860135;29;20045;-76
2021/09/14 03:08:29;;;;;;;5.63;2.45;;;22.30;66.70;;;;;;4856312;29;20032;-76
2021/09/14 03:10:55;;;;;;;3.10;2.35;;;22.30;68.10;;;;;;4861479;29;20499;-75
2021/09/14 03:13:20;;;;;;;4.78;2.50;;;22.20;67.00;;;;;;4860094;29;20037;-75
2021/09/14 03:15:46;;;;;;;2.70;2.42;;;22.20;68.30;;;;;;4860814;29;20045;-75
2021/09/14 03:18:11;;;;;;;3.88;2.70;;;22.20;67.60;;;;;;4860005;29;20073;-76
2021/09/14 03:20:37;;;;;;;3.35;2.53;;;22.20;67.90;;;;;;4857829;29;20112;-75
2021/09/14 03:23:03;;;;;;;3.40;2.55;;;22.10;67.50;;;;;;4860740;29;20034;-76
2021/09/14 03:25:29;;;;;;;3.42;2.40;;;22.10;68.20;;;;;;4845713;29;20041;-75
2021/09/14 03:27:55;;;;;;;3.63;2.60;;;22.10;68.40;;;;;;4860214;29;20116;-76
2021/09/14 03:30:20;;;;;;;2.95;2.47;;;22.10;69.10;;;;;;4864861;29;20120;-76
2021/09/14 03:32:46;;;;;;;5.85;2.88;;;22.00;68.60;;;;;;4953048;29;20039;-75
2021/09/14 03:35:12;;;;;;;4.85;2.38;;;22.00;69.40;;;;;;4935842;29;20035;-76
2021/09/14 03:37:37;;;;;;;5.68;2.53;;;22.00;69.30;;;;;;4953549;29;20055;-75
2021/09/14 03:40:04;;;;;;;3.13;2.67;;;22.00;69.80;;;;;;4953067;29;20032;-76
2021/09/14 03:42:30;;;;;;;3.88;2.90;;;21.90;69.70;;;;;;4953424;29;20031;-76
2021/09/14 03:44:56;;;;;;;4.53;2.70;;;21.90;70.40;;;;;;4953826;29;20386;-75
2021/09/14 03:47:21;;;;;;;3.97;3.00;;;21.90;70.00;;;;;;4953794;29;20038;-76
2021/09/14 03:49:47;;;;;;;4.32;2.45;;;21.90;70.80;;;;;;4954301;29;20039;-75
2021/09/14 03:52:12;;;;;;;6.93;2.92;;;21.80;70.50;;;;;;4953512;29;20024;-75
2021/09/14 03:54:38;;;;;;;3.67;2.70;;;21.80;70.80;;;;;;4953235;29;20031;-74
2021/09/14 03:57:03;;;;;;;4.13;2.70;;;21.80;70.70;;;;;;4953445;29;20423;-76
2021/09/14 03:59:29;;;;;;;4.38;2.65;;;21.80;70.90;;;;;;4953742;29;20023;-75
2021/09/14 04:01:58;;;;;;;5.53;3.00;;;21.70;70.40;;;;;;4953413;29;20061;-76
2021/09/14 04:04:34;;;;;;;5.18;2.92;;;21.70;70.70;;;;;;4952669;29;20032;-75
2021/09/14 04:07:22;;;;;;;4.20;2.97;;;21.70;70.30;;;;;;4953180;29;20031;-75
2021/09/14 04:09:47;;;;;;;3.03;2.55;;;21.70;70.20;;;;;;4952162;29;20039;-75
2021/09/14 04:12:12;;;;;;;3.75;2.67;;;21.80;70.70;;;;;;4952884;29;20031;-75
2021/09/14 04:14:38;;;;;;;4.28;2.63;;;21.80;70.50;;;;;;4952305;29;20027;-75
2021/09/14 04:17:04;;;;;;;7.15;2.88;;;21.70;70.50;;;;;;4934895;29;20067;-75
2021/09/14 04:19:29;;;;;;;4.55;2.90;;;21.70;70.80;;;;;;4951929;29;20488;-75
2021/09/14 04:21:55;;;;;;;4.53;2.90;;;21.60;71.00;;;;;;4952029;29;20074;-75
2021/09/14 04:24:20;;;;;;;4.40;2.47;;;21.60;71.10;;;;;;4952523;29;20051;-75
2021/09/14 04:26:47;;;;;;;5.65;3.08;;;21.50;71.50;;;;;;4935695;29;20054;-75
2021/09/14 04:29:13;;;;;;;4.78;2.90;;;21.50;71.70;;;;;;4952711;28;20129;-75
2021/09/14 04:31:38;;;;;;;4.53;2.80;;;21.50;72.70;;;;;;4956733;29;20119;-75
2021/09/14 04:34:04;;;;;;;4.13;2.90;;;21.40;72.70;;;;;;4956312;29;20526;-75
2021/09/14 04:36:29;;;;;;;4.55;3.00;;;21.30;72.50;;;;;;4956862;29;20038;-75
2021/09/14 04:38:56;;;;;;;3.67;2.75;;;21.20;73.40;;;;;;4956231;29;20051;-75
2021/09/14 04:41:22;;;;;;;4.53;2.90;;;21.10;74.80;;;;;;4956516;29;20074;-75
2021/09/14 04:43:47;;;;;;;3.95;2.85;;;21.10;75.20;;;;;;4956937;29;20457;-75
2021/09/14 04:46:13;;;;;;;5.13;3.03;;;21.20;72.90;;;;;;4956353;29;20444;-75
2021/09/14 04:48:39;;;;;;;4.82;3.05;;;21.20;73.20;;;;;;4956151;29;20031;-76
2021/09/14 04:51:04;;;;;;;4.47;3.22;;;21.30;73.70;;;;;;4950725;29;20091;-75
2021/09/14 04:53:30;;;;;;;5.38;3.20;;;21.30;74.20;;;;;;4955235;29;20102;-76
2021/09/14 04:55:56;;;;;;;7.18;3.35;;;21.20;73.50;;;;;;4956201;29;20024;-76
2021/09/14 04:58:22;;;;;;;4.88;3.30;;;21.30;72.90;;;;;;4955346;29;20066;-76
2021/09/14 05:00:47;;;;;;;3.90;2.83;;;21.40;72.80;;;;;;4955633;29;20054;-76
2021/09/14 05:03:13;;;;;;;4.20;2.80;;;21.40;73.00;;;;;;4955008;29;20043;-76
2021/09/14 05:05:38;;;;;;;3.85;3.08;;;21.30;73.00;;;;;;4955568;29;20027;-75
2021/09/14 05:08:04;;;;;;;4.78;3.20;;;21.30;73.40;;;;;;4955053;29;20023;-76
2021/09/14 05:10:30;;;;;;;5.30;3.15;;;21.30;73.10;;;;;;4955501;29;20046;-76
2021/09/14 05:12:56;;;;;;;3.25;2.75;;;21.30;72.80;;;;;;4938396;29;20062;-75
2021/09/14 05:15:22;;;;;;;4.55;2.60;;;21.30;72.60;;;;;;4954991;29;20027;-75
2021/09/14 05:17:47;;;;;;;6.63;3.38;;;21.30;72.60;;;;;;4955103;29;20030;-75
2021/09/14 05:20:14;;;;;;;5.10;3.03;;;21.20;72.90;;;;;;4955323;29;20075;-75
2021/09/14 05:22:41;;;;;;;6.57;3.47;;;21.20;73.30;;;;;;4955224;29;20646;-75
2021/09/14 05:25:07;;;;;;;3.80;3.00;;;21.20;73.60;;;;;;4955463;29;20031;-75
2021/09/14 05:27:33;;;;;;;3.63;2.70;;;21.20;73.40;;;;;;4950404;29;20051;-75
2021/09/14 05:29:59;;;;;;;3.55;3.03;;;21.20;73.80;;;;;;4955238;29;20043;-75
2021/09/14 05:32:26;;;;;;;3.85;3.30;;;21.20;73.70;;;;;;4955299;29;20050;-75
2021/09/14 05:34:52;;;;;;;4.60;2.95;;;21.20;73.40;;;;;;4956146;29;20042;-75
2021/09/14 05:37:18;;;;;;;4.68;3.42;;;21.20;73.90;;;;;;4955145;29;20023;-75
2021/09/14 05:39:45;;;;;;;3.75;2.80;;;21.20;73.40;;;;;;4955326;29;20027;-75
2021/09/14 05:42:10;;;;;;;4.97;3.30;;;21.10;75.30;;;;;;4954627;28;20035;-75
2021/09/14 05:44:36;;;;;;;4.00;3.45;;;21.10;73.60;;;;;;4946914;29;20042;-76
2021/09/14 05:47:03;;;;;;;4.97;3.05;;;21.10;74.40;;;;;;4955519;29;20035;-76
2021/09/14 05:49:28;;;;;;;4.50;3.30;;;21.00;73.90;;;;;;4955231;29;20050;-81
2021/09/14 05:51:54;;;;;;;5.32;3.47;;;21.00;74.70;;;;;;4955100;29;20432;-75
2021/09/14 05:54:20;;;;;;;4.85;3.30;;;20.90;74.90;;;;;;4954927;29;20500;-74
2021/09/14 05:56:45;;;;;;;3.67;3.28;;;21.00;76.00;;;;;;4955143;29;20055;-73
2021/09/14 05:59:11;;;;;;;5.25;3.25;;;20.80;75.30;;;;;;4954827;29;20035;-74
2021/09/14 06:01:37;;;;;;;4.65;3.35;;;20.90;75.80;;;;;;4954885;29;20031;-74
2021/09/14 06:04:02;;;;;;;3.83;3.13;;;20.90;75.30;;;;;;4954935;29;20027;-75
2021/09/14 06:06:28;;;;;;;5.35;3.42;;;20.80;76.00;;;;;;4953049;29;20046;-75
2021/09/14 06:08:54;;;;;;;4.40;3.40;;;20.90;75.40;;;;;;4952140;29;20030;-74
2021/09/14 06:11:19;;;;;;;5.50;3.50;;;20.90;75.70;;;;;;4954795;29;20142;-74
2021/09/14 06:13:45;;;;;;;6.85;3.88;;;20.80;77.00;;;;;;4954542;29;20019;-74
2021/09/14 06:16:11;;;;;;;4.38;3.28;;;20.80;76.80;;;;;;4951035;28;20058;-75
2021/09/14 06:18:37;;;;;;;4.22;3.47;;;20.80;76.30;;;;;;4953634;29;20058;-75
2021/09/14 06:21:03;;;;;;;4.68;3.45;;;20.90;76.00;;;;;;4952447;29;20568;-74
2021/09/14 06:23:29;;;;;;;4.22;3.70;;;20.90;76.00;;;;;;4943347;29;20137;-75
2021/09/14 06:25:55;;;;;;;6.63;3.75;;;20.90;76.00;;;;;;4920334;29;20126;-73
2021/09/14 06:28:20;;;;;;;5.72;3.63;;;20.90;76.10;;;;;;4949423;29;20037;-74
2021/09/14 06:30:46;;;;;;;6.88;3.40;;;20.90;75.60;;;;;;4946347;29;20066;-75
2021/09/14 06:33:12;;;;;;;4.38;3.40;;;21.00;76.00;;;;;;4947902;29;20609;-74
2021/09/14 06:35:37;;;;;;;4.40;3.58;;;21.00;75.80;;;;;;4945950;29;20035;-74
2021/09/14 06:38:03;;;;;;;5.05;3.50;;;21.00;76.00;;;;;;4941281;29;20028;-75
2021/09/14 06:40:29;;;;;;;5.05;3.47;;;21.00;76.50;;;;;;4952509;29;20031;-75
2021/09/14 06:42:54;;;;;;;5.88;3.30;;;21.00;75.60;;;;;;4948809;29;20035;-74
2021/09/14 06:45:20;;;;;;;5.80;3.33;;;20.90;75.80;;;;;;4943284;29;20501;-74
2021/09/14 06:47:45;;;;;;;6.20;3.50;;;20.90;76.40;;;;;;4945534;29;20043;-74
2021/09/14 06:50:11;;;;;;;5.60;3.70;;;20.90;76.70;;;;;;4928878;29;20075;-74
2021/09/14 06:52:38;;;;;;;5.97;3.75;;;20.90;76.60;;;;;;4930628;29;20032;-75
2021/09/14 06:55:05;;;;;;;6.10;3.67;;;20.90;77.40;;;;;;4952310;29;20027;-73
2021/09/14 06:57:30;;;;;;;6.18;3.90;;;20.90;77.00;;;;;;4954255;29;20504;-73
2021/09/14 06:59:56;;;;;;;5.40;3.45;;;20.90;77.90;;;;;;4954053;29;20039;-73
2021/09/14 07:02:21;;;;;;;4.97;3.45;;;20.80;78.40;;;;;;4936723;29;20026;-73
2021/09/14 07:04:47;;;;;;;5.53;3.75;;;20.80;77.20;;;;;;4954187;29;20039;-73
2021/09/14 07:07:13;;;;;;;5.80;3.65;;;20.90;77.80;;;;;;4953082;29;20623;-72
2021/09/14 07:09:40;;;;;;;6.10;3.35;;;20.90;78.50;;;;;;4953339;29;20560;-73
2021/09/14 07:12:06;;;;;;;5.93;3.60;;;20.90;78.20;;;;;;4953482;29;20023;-73
2021/09/14 07:14:32;;;;;;;7.25;3.95;;;20.90;78.00;;;;;;4953888;29;20444;-73
2021/09/14 07:16:57;;;;;;;6.88;3.72;;;20.80;77.80;;;;;;4954352;29;20035;-72
2021/09/14 07:19:23;;;;;;;5.40;3.67;;;20.80;78.00;;;;;;4953166;29;20023;-73
2021/09/14 07:21:49;;;;;;;5.78;3.58;;;20.80;78.20;;;;;;4953453;29;20480;-73
2021/09/14 07:24:14;;;;;;;7.68;3.58;;;20.80;78.30;;;;;;4953652;29;20031;-72
2021/09/14 07:26:40;;;;;;;6.90;3.05;;;20.80;78.70;;;;;;4953695;29;20053;-74
2021/09/14 07:29:06;;;;;;;8.30;3.50;;;20.80;79.00;;;;;;4953611;29;20070;-74
2021/09/14 07:31:33;;;;;;;5.82;3.45;;;20.90;79.10;;;;;;4954284;29;20030;-75
2021/09/14 07:33:59;;;;;;;6.43;3.40;;;20.90;79.60;;;;;;4953248;29;20039;-74
2021/09/14 07:36:25;;;;;;;8.23;4.10;;;20.90;79.40;;;;;;4953457;29;20031;-75
2021/09/14 07:38:51;;;;;;;6.63;3.67;;;20.80;79.70;;;;;;4953438;29;20627;-75
2021/09/14 07:41:16;;;;;;;4.45;3.20;;;20.80;79.00;;;;;;4953367;29;20031;-74
2021/09/14 07:43:42;;;;;;;6.25;3.33;;;20.80;78.80;;;;;;4953908;29;20110;-73
2021/09/14 07:46:10;;;;;;;8.18;3.35;;;20.90;79.20;;;;;;4934207;29;20086;-75
2021/09/14 07:48:36;;;;;;;6.28;3.40;;;20.90;79.50;;;;;;4952988;29;20035;-74
2021/09/14 07:51:03;;;;;;;7.78;3.60;;;20.90;78.30;;;;;;4953223;29;20051;-74
2021/09/14 07:53:29;;;;;;;5.90;3.30;;;21.00;78.60;;;;;;4936118;29;20117;-74
2021/09/14 07:55:54;;;;;;;6.10;3.65;;;21.00;78.80;;;;;;4953764;29;20119;-74
2021/09/14 07:58:20;;;;;;;4.40;3.25;;;21.00;78.60;;;;;;4953214;29;20040;-74
2021/09/14 08:00:45;;;;;;;4.13;3.10;;;21.00;78.40;;;;;;4953081;29;20522;-74
2021/09/14 08:03:12;;;;;;;6.75;3.83;;;21.00;78.50;;;;;;4953025;29;20027;-74
2021/09/14 08:05:42;;;;;;;5.47;3.20;;;21.10;78.40;;;;;;4952628;29;20143;-73
2021/09/14 08:08:07;;;;;;;6.95;3.40;;;21.00;78.60;;;;;;4953398;29;20027;-74
2021/09/14 08:10:37;;;;;;;8.35;3.42;;;21.00;79.20;;;;;;4953512;29;20579;-74
2021/09/14 08:13:03;;;;;;;3.88;2.90;;;21.10;78.10;;;;;;4953045;29;20050;-74
2021/09/14 08:15:29;;;;;;;4.97;3.33;;;21.10;78.80;;;;;;4953004;29;20738;-74
2021/09/14 08:17:54;;;;;;;5.18;3.10;;;21.20;78.40;;;;;;4953176;29;20042;-74
2021/09/14 08:20:21;;;;;;;4.30;2.97;;;21.30;78.90;;;;;;4953474;29;20035;-74
2021/09/14 08:22:47;;;;;;;5.80;3.15;;;21.30;78.70;;;;;;4954179;29;20473;-74
2021/09/14 08:25:13;;;;;;;6.88;3.30;;;21.20;79.00;;;;;;4953531;29;20042;-74
2021/09/14 08:27:41;;;;;;;7.50;3.03;;;21.20;79.20;;;;;;4953455;29;20028;-74
2021/09/14 08:30:07;;;;;;;4.43;2.97;;;21.20;79.20;;;;;;4953471;29;20130;-74
2021/09/14 08:32:33;;;;;;;5.80;3.15;;;21.20;79.40;;;;;;4952971;29;20085;-74
2021/09/14 08:34:58;;;;;;;4.40;2.85;;;21.30;79.20;;;;;;4953886;29;20038;-75
2021/09/14 08:37:24;;;;;;;4.75;3.05;;;21.30;78.70;;;;;;4953520;29;20027;-74
2021/09/14 08:39:49;;;;;;;5.20;3.15;;;21.40;79.40;;;;;;4953239;29;20033;-74
2021/09/14 08:42:16;;;;;;;6.00;3.05;;;21.30;79.20;;;;;;4953326;29;20038;-74
2021/09/14 08:44:42;;;;;;;6.13;2.95;;;21.40;79.00;;;;;;4935909;29;20027;-74
2021/09/14 08:47:09;;;;;;;6.10;2.85;;;21.50;79.40;;;;;;4953560;29;20024;-74
2021/09/14 08:49:35;;;;;;;5.65;2.80;;;21.60;79.00;;;;;;4953695;29;20039;-73
2021/09/14 08:52:01;;;;;;;3.72;2.75;;;21.80;77.80;;;;;;4953359;29;20039;-74
2021/09/14 08:54:26;;;;;;;5.88;3.10;;;22.00;78.20;;;;;;4953128;29;20122;-75
2021/09/14 08:56:52;;;;;;;5.75;2.70;;;22.20;77.40;;;;;;4953266;29;20087;-74
2021/09/14 08:59:29;;;;;;;6.55;2.75;;;22.10;77.40;;;;;;4952967;29;20035;-75
2021/09/14 09:02:03;;;;;;;4.45;2.58;;;22.20;77.00;;;;;;4949795;29;20039;-74
2021/09/14 09:04:28;;;;;;;5.95;2.78;;;22.40;77.30;;;;;;4953329;29;20035;-63
2021/09/14 09:06:54;;;;;;;6.57;3.28;;;22.70;76.50;;;;;;4952989;29;20457;-63
2021/09/14 09:09:22;;;;;;;6.40;2.67;;;22.60;75.40;;;;;;4953049;29;20039;-62
2021/09/14 09:12:01;;;;;;;7.88;2.67;;;22.60;75.60;;;;;;4952936;29;20030;-62
2021/09/14 09:14:44;;;;;;;6.82;2.80;;;22.70;75.40;;;;;;4937804;29;20031;-64
2021/09/14 09:17:17;;;;;;;5.82;2.60;;;22.80;75.20;;;;;;4951998;28;20057;-65
2021/09/14 09:19:54;;;;;;;5.78;2.70;;;22.80;74.10;;;;;;4955419;29;20066;-64
2021/09/14 09:22:23;;;;;;;5.40;2.90;;;22.90;74.80;;;;;;4955220;29;20059;-65
2021/09/14 09:24:50;;;;;;;5.95;2.70;;;22.90;74.20;;;;;;4950654;29;20100;-64
2021/09/14 09:27:19;;;;;;;6.68;3.08;;;22.90;74.30;;;;;;4956170;29;20031;-64
2021/09/14 09:29:59;;;;;;;6.68;3.13;;;23.10;73.80;;;;;;4955497;29;20098;-64
2021/09/14 09:32:26;;;;;;;5.80;2.72;;;23.40;74.80;;;;;;4954588;29;20604;-65
2021/09/14 09:34:59;;;;;;;5.75;2.95;;;23.70;72.10;;;;;;4941904;29;20034;-66
2021/09/14 09:37:24;;;;;;;;;;;23.70;71.90;;;;;;4956244;29;20042;-66
2021/09/14 09:39:51;;;;;;;7.65;2.70;;;23.80;71.60;;;;;;4955402;29;19914;-65
2021/09/14 09:42:17;;;;;;;5.72;2.97;;;24.00;72.00;;;;;;4955605;29;20575;-65
2021/09/14 09:44:57;;;;;;;6.10;2.70;;;24.10;71.60;;;;;;4955307;29;20027;-63
2021/09/14 09:47:23;;;;;;;6.88;2.80;;;24.00;70.60;;;;;;4948947;29;20031;-65
2021/09/14 09:49:49;;;;;;;5.97;2.85;;;23.70;70.60;;;;;;4951341;29;20035;-67
2021/09/14 09:52:16;;;;;;;4.75;2.80;;;23.50;71.20;;;;;;4937763;29;20023;-68
2021/09/14 09:54:43;;;;;;;6.28;3.00;;;23.40;72.00;;;;;;4954317;29;20523;-69
2021/09/14 09:57:09;;;;;;;10.60;2.95;;;23.60;72.50;;;;;;4951769;29;20063;-75
2021/09/14 09:59:35;;;;;;;5.07;2.60;;;23.70;72.30;;;;;;4955299;29;20045;-63
2021/09/14 10:02:19;;;;;;;5.60;2.67;;;23.60;71.10;;;;;;4955448;29;20615;-63
2021/09/14 10:05:00;;;;;;;6.03;2.70;;;23.50;71.30;;;;;;4954610;29;20019;-69
2021/09/14 10:07:31;;;;;;;3.63;2.38;;;23.40;71.60;;;;;;4953581;29;20059;-66
2021/09/14 10:09:58;;;;;;;5.85;2.78;;;23.40;71.70;;;;;;4937621;29;20047;-70
2021/09/14 10:12:27;;;;;;;9.60;2.95;;;23.50;71.70;;;;;;4954455;29;20023;-69
2021/09/14 10:15:15;;;;;;;5.43;2.75;;;23.40;71.70;;;;;;4954576;29;20074;-69
2021/09/14 10:17:51;;;;;;;7.28;3.33;;;23.30;72.90;;;;;;4927405;29;20522;-69
2021/09/14 10:20:20;;;;;;;7.38;3.10;;;23.30;72.20;;;;;;4954755;29;20050;-69
2021/09/14 10:22:58;;;;;;;6.63;3.05;;;23.30;72.10;;;;;;4955258;29;20023;-69
2021/09/14 10:25:24;;;;;;;4.10;2.60;;;23.30;72.10;;;;;;4943820;29;20039;-69
2021/09/14 10:27:49;;;;;;;3.95;2.60;;;23.40;72.20;;;;;;4949720;28;20038;-69
2021/09/14 10:30:22;;;;;;;9.00;3.05;;;23.50;72.00;;;;;;4954614;29;20043;-69
2021/09/14 10:32:48;;;;;;;6.68;2.90;;;23.60;71.50;;;;;;4954628;29;20113;-69
2021/09/14 10:35:25;;;;;;;4.15;2.78;;;23.60;71.30;;;;;;4954800;29;20472;-73
2021/09/14 10:37:51;;;;;;;4.85;2.35;;;23.60;71.30;;;;;;4955154;29;20113;-71
2021/09/14 10:40:16;;;;;;;6.20;2.35;;;23.70;71.00;;;;;;4954400;29;20117;-71
2021/09/14 10:42:45;;;;;;;3.25;2.30;;;23.80;69.00;;;;;;4954181;29;20030;-71
2021/09/14 10:45:16;;;;;;;3.65;2.20;;;23.70;69.40;;;;;;4954280;29;20039;-72
2021/09/14 10:47:46;;;;;;;7.35;2.53;;;23.90;70.20;;;;;;4954529;29;20055;-72
2021/09/14 10:50:26;;;;;;;4.60;2.42;;;23.90;69.60;;;;;;4954642;29;20095;-72
2021/09/14 10:52:57;;;;;;;7.18;2.67;;;23.90;68.90;;;;;;4954560;29;20047;-71
2021/09/14 10:55:23;;;;;;;4.90;2.60;;;23.80;68.80;;;;;;4953802;29;20035;-72
2021/09/14 10:57:58;;;;;;;5.15;2.65;;;24.00;69.30;;;;;;4953957;29;20074;-71
2021/09/14 11:00:29;;;;;;;3.58;2.25;;;23.90;68.00;;;;;;4954187;29;20504;-72
2021/09/14 11:02:56;;;;;;;4.32;2.70;;;24.00;68.70;;;;;;4954148;29;20431;-70
2021/09/14 11:05:29;;;;;;;6.10;2.67;;;24.10;69.10;;;;;;4954356;29;20027;-69
2021/09/14 11:08:06;;;;;;;4.75;2.60;;;24.20;68.70;;;;;;4949894;29;20769;-70
2021/09/14 11:10:41;;;;;;;4.13;2.33;;;24.30;69.90;;;;;;4951130;29;20046;-68
2021/09/14 11:13:08;;;;;;;5.50;2.35;;;24.30;68.70;;;;;;4945554;29;20027;-68
2021/09/14 11:15:34;;;;;;;4.18;2.35;;;24.40;68.70;;;;;;4947206;29;20026;-65
2021/09/14 11:18:00;;;;;;;5.00;2.45;;;24.50;68.20;;;;;;4950082;29;20092;-63
2021/09/14 11:20:26;;;;;;;4.63;2.20;;;24.60;68.00;;;;;;4953691;29;20073;-63
2021/09/14 11:22:53;;;;;;;4.80;2.30;;;24.80;67.50;;;;;;4953991;29;20050;-63
2021/09/14 11:25:26;;;;;;;6.75;2.20;;;24.70;66.50;;;;;;4952753;29;20031;-61
2021/09/14 11:28:01;;;;;;;6.80;2.65;;;24.70;65.80;;;;;;4953313;29;20093;-62
2021/09/14 11:30:28;;;;;;;4.63;2.40;;;24.70;65.90;;;;;;4953343;29;20090;-61
2021/09/14 11:32:55;;;;;;;4.85;2.50;;;24.60;64.90;;;;;;4953361;29;20046;-65
2021/09/14 11:35:22;;;;;;;6.28;2.60;;;24.30;65.40;;;;;;4950419;29;20392;-68
2021/09/14 11:38:03;;;;;;;3.70;2.05;;;24.40;67.20;;;;;;4948686;29;20035;-69
2021/09/14 11:40:32;;;;;;;5.93;2.38;;;24.70;67.50;;;;;;4952537;28;20062;-69
2021/09/14 11:42:59;;;;;;;4.85;2.20;;;25.00;64.90;;;;;;4945327;29;20028;-67
2021/09/14 11:45:28;;;;;;;5.43;2.10;;;25.10;65.90;;;;;;4949616;29;20580;-67
2021/09/14 11:47:55;;;;;;;3.83;2.15;;;25.30;66.10;;;;;;4941257;29;20031;-68
2021/09/14 11:50:28;;;;;;;5.18;2.20;;;25.30;64.80;;;;;;4947941;29;20094;-71
2021/09/14 11:53:06;;;;;;;3.95;2.25;;;25.40;64.90;;;;;;4956319;29;20049;-71
2021/09/14 11:55:33;;;;;;;7.03;2.20;;;25.30;63.80;;;;;;4953157;29;20031;-72
2021/09/14 11:57:59;;;;;;;3.65;2.08;;;25.30;63.60;;;;;;4954538;29;20153;-70
2021/09/14 12:00:43;;;;;;;3.13;2.08;;;25.20;63.70;;;;;;4953654;29;20034;-69
2021/09/14 12:03:10;;;;;;;4.32;2.08;;;25.30;65.20;;;;;;4953301;29;20047;-71
2021/09/14 12:05:35;;;;;;;3.92;2.28;;;25.50;63.20;;;;;;4953229;29;20032;-69
2021/09/14 12:08:09;;;;;;;3.78;1.85;;;25.40;63.20;;;;;;4953153;29;20029;-71
2021/09/14 12:10:52;;;;;;;6.72;2.00;;;25.50;63.50;;;;;;4953196;29;20043;-70
2021/09/14 12:13:19;;;;;;;5.00;2.03;;;25.30;63.00;;;;;;4953120;29;20500;-70
2021/09/14 12:15:46;;;;;;;3.30;1.73;;;25.50;63.60;;;;;;4953047;29;20031;-70
2021/09/14 12:18:16;;;;;;;3.17;1.80;;;25.50;63.10;;;;;;4953091;29;20031;-70
2021/09/14 12:20:45;;;;;;;3.70;1.83;;;25.70;62.50;;;;;;4952916;29;20639;-71
2021/09/14 12:23:12;;;;;;;4.40;2.00;;;25.50;61.30;;;;;;4952735;29;20406;-63
2021/09/14 12:25:38;;;;;;;7.20;2.17;;;25.60;63.20;;;;;;4942339;29;20031;-68
2021/09/14 12:28:05;;;;;;;3.63;1.80;;;25.70;62.70;;;;;;4950560;29;20055;-68
2021/09/14 12:30:30;;;;;;;3.80;1.85;;;26.00;64.10;;;;;;4937062;29;20415;-68
2021/09/14 12:32:56;;;;;;;2.92;1.83;;;25.90;62.10;;;;;;4952008;29;20047;-69
2021/09/14 12:35:22;;;;;;;3.40;1.75;;;26.20;60.60;;;;;;4952672;29;20039;-70
2021/09/14 12:37:47;;;;;;;3.35;1.60;;;26.40;59.40;;;;;;4951871;29;20042;-67
2021/09/14 12:40:13;;;;;;;4.20;1.75;;;26.70;57.80;;;;;;4952538;29;20493;-67
2021/09/14 12:42:39;;;;;;;4.20;1.60;;;27.30;61.00;;;;;;4952260;29;20024;-66
2021/09/14 12:45:05;;;;;;;2.67;1.55;;;27.60;55.40;;;;;;4951916;29;20459;-66
2021/09/14 12:47:30;;;;;;;2.92;1.50;;;27.80;55.00;;;;;;4951846;28;20027;-66
2021/09/14 12:49:56;;;;;;;3.00;1.70;;;27.60;53.50;;;;;;4937387;29;20131;-67
2021/09/14 12:52:22;;;;;;;2.88;1.40;;;27.80;54.80;;;;;;4953147;28;20115;-67
2021/09/14 12:54:47;;;;;;;2.47;1.40;;;27.90;55.40;;;;;;4948699;29;20127;-67
2021/09/14 12:57:13;;;;;;;4.07;1.70;;;27.90;56.30;;;;;;4943734;29;20030;-67
2021/09/14 12:59:39;;;;;;;3.30;1.67;;;27.70;54.00;;;;;;4952330;29;20028;-67
2021/09/14 13:02:04;;;;;;;2.95;1.63;;;27.40;55.80;;;;;;4945670;29;20027;-67
2021/09/14 13:04:30;;;;;;;4.03;1.80;;;27.00;54.70;;;;;;4953890;29;20408;-67
2021/09/14 13:06:55;;;;;;;3.92;1.80;;;26.70;57.30;;;;;;4952495;29;20103;-68
2021/09/14 13:09:21;;;;;;;4.05;1.50;;;26.60;57.30;;;;;;4952024;29;20398;-67
2021/09/14 13:11:47;;;;;;;4.18;2.10;;;26.60;58.10;;;;;;4950435;29;20027;-67
2021/09/14 13:16:57;;;;;;;3.40;1.90;;;26.30;57.40;;;;;;4950612;29;20075;-66
2021/09/14 13:19:22;;;;;;;2.80;1.67;;;26.40;58.50;;;;;;4951897;29;20031;-65
2021/09/14 13:21:48;;;;;;;4.57;1.65;;;26.50;57.40;;;;;;4949290;29;20031;-66
2021/09/14 13:24:13;;;;;;;3.80;2.00;;;26.40;58.10;;;;;;4952610;29;20031;-64
2021/09/14 13:26:39;;;;;;;5.38;2.20;;;26.50;58.00;;;;;;4950016;29;20026;-65
2021/09/14 13:29:05;;;;;;;4.50;1.90;;;26.70;56.80;;;;;;4954806;29;20118;-65
2021/09/14 13:31:30;;;;;;;4.10;1.92;;;26.50;57.60;;;;;;4941455;29;20113;-65
2021/09/14 13:33:56;;;;;;;3.72;1.92;;;26.50;55.90;;;;;;4949622;29;20579;-64
2021/09/14 13:36:22;;;;;;;4.18;2.10;;;26.20;56.50;;;;;;4952010;29;20039;-63
2021/09/14 13:38:48;;;;;;;5.13;1.75;;;26.00;57.70;;;;;;4950096;29;20044;-62
2021/09/14 13:41:16;;;;;;;3.65;2.03;;;26.00;57.90;;;;;;4943770;29;20577;-63
2021/09/14 13:46:14;;;;;;;4.40;1.90;;;25.90;58.30;;;;;;4949408;29;20053;-63